sensor_id;sensor_type;location;lat;lon;timestamp;temperature;humidity
31597;DHT22;18201;50.978;7.034;2023-01-16T00:00:17;5.30;99.90
31597;DHT22;18201;50.978;7.034;2023-01-16T00:00:48;5.30;99.90
31597;DHT22;18201;50.978;7.034;2023-01-16T00:01:20;5.30;99.90
31597;DHT22;18201;50.978;7.034;2023-01-16T00:01:55;5.30;99.90
31597;DHT22;18201;50.978;7.034;2023-01-16T00:02:26;5.30;99.90
31597;DHT22;18201;50.978;7.034;2023-01-16T00:02:57;5.30;99.90
31597;DHT22;18201;50.978;7.034;2023-01-16T00:03:29;5.30;99.90
31597;DHT22;18201;50.978;7.034;2023-01-16T00:04:04;5.30;99.90
31597;DHT22;18201;50.978;7.034;2023-01-16T00:04:35;5.30;99.90
31597;DHT22;18201;50.978;7.034;2023-01-16T00:05:09;5.30;99.90
31597;DHT22;18201;50.978;7.034;2023-01-16T00:05:39;5.30;99.90
31597;DHT22;18201;50.978;7.034;2023-01-16T00:06:10;5.30;99.90
31597;DHT22;18201;50.978;7.034;2023-01-16T00:06:42;5.30;99.90
31597;DHT22;18201;50.978;7.034;2023-01-16T00:07:13;5.30;99.90
31597;DHT22;18201;50.978;7.034;2023-01-16T00:07:44;5.30;99.90
31597;DHT22;18201;50.978;7.034;2023-01-16T00:08:18;5.30;99.90
31597;DHT22;18201;50.978;7.034;2023-01-16T00:08:48;5.30;99.90
31597;DHT22;18201;50.978;7.034;2023-01-16T00:09:21;5.30;99.90
31597;DHT22;18201;50.978;7.034;2023-01-16T00:09:52;5.30;99.90
31597;DHT22;18201;50.978;7.034;2023-01-16T00:10:24;5.30;99.90
31597;DHT22;18201;50.978;7.034;2023-01-16T00:10:56;5.30;99.90
31597;DHT22;18201;50.978;7.034;2023-01-16T00:11:27;5.30;99.90
31597;DHT22;18201;50.978;7.034;2023-01-16T00:11:57;5.30;99.90
31597;DHT22;18201;50.978;7.034;2023-01-16T00:12:29;5.30;99.90
31597;DHT22;18201;50.978;7.034;2023-01-16T00:13:00;5.30;99.90
31597;DHT22;18201;50.978;7.034;2023-01-16T00:13:32;5.30;99.90
31597;DHT22;18201;50.978;7.034;2023-01-16T00:14:03;5.30;99.90
31597;DHT22;18201;50.978;7.034;2023-01-16T00:14:35;5.30;99.90
31597;DHT22;18201;50.978;7.034;2023-01-16T00:15:06;5.40;99.90
31597;DHT22;18201;50.978;7.034;2023-01-16T00:15:37;5.40;99.90
31597;DHT22;18201;50.978;7.034;2023-01-16T00:16:09;5.40;99.90
31597;DHT22;18201;50.978;7.034;2023-01-16T00:16:40;5.30;99.90
31597;DHT22;18201;50.978;7.034;2023-01-16T00:17:11;5.30;99.90
31597;DHT22;18201;50.978;7.034;2023-01-16T00:17:43;5.40;99.90
31597;DHT22;18201;50.978;7.034;2023-01-16T00:18:14;5.30;99.90
31597;DHT22;18201;50.978;7.034;2023-01-16T00:18:45;5.40;99.90
31597;DHT22;18201;50.978;7.034;2023-01-16T00:19:18;5.40;99.90
31597;DHT22;18201;50.978;7.034;2023-01-16T00:19:49;5.30;99.90
31597;DHT22;18201;50.978;7.034;2023-01-16T00:20:22;5.30;99.90
31597;DHT22;18201;50.978;7.034;2023-01-16T00:20:53;5.30;99.90
31597;DHT22;18201;50.978;7.034;2023-01-16T00:21:28;5.30;99.90
31597;DHT22;18201;50.978;7.034;2023-01-16T00:21:59;5.30;99.90
31597;DHT22;18201;50.978;7.034;2023-01-16T00:22:35;5.30;99.90
31597;DHT22;18201;50.978;7.034;2023-01-16T00:23:08;5.30;99.90
31597;DHT22;18201;50.978;7.034;2023-01-16T00:23:42;5.30;99.90
31597;DHT22;18201;50.978;7.034;2023-01-16T00:24:13;5.30;99.90
31597;DHT22;18201;50.978;7.034;2023-01-16T00:24:46;5.30;99.90
31597;DHT22;18201;50.978;7.034;2023-01-16T00:25:20;5.30;99.90
31597;DHT22;18201;50.978;7.034;2023-01-16T00:25:51;5.30;99.90
31597;DHT22;18201;50.978;7.034;2023-01-16T00:26:24;5.30;99.90
31597;DHT22;18201;50.978;7.034;2023-01-16T00:26:55;5.30;99.90
31597;DHT22;18201;50.978;7.034;2023-01-16T00:27:25;5.30;99.90
31597;DHT22;18201;50.978;7.034;2023-01-16T00:27:57;5.30;99.90
31597;DHT22;18201;50.978;7.034;2023-01-16T00:28:28;5.30;99.90
31597;DHT22;18201;50.978;7.034;2023-01-16T00:29:00;5.30;99.90
31597;DHT22;18201;50.978;7.034;2023-01-16T00:29:33;5.30;99.90
31597;DHT22;18201;50.978;7.034;2023-01-16T00:30:05;5.30;99.90
31597;DHT22;18201;50.978;7.034;2023-01-16T00:30:36;5.30;99.90
31597;DHT22;18201;50.978;7.034;2023-01-16T00:31:08;5.30;99.90
31597;DHT22;18201;50.978;7.034;2023-01-16T00:31:39;5.30;99.90
31597;DHT22;18201;50.978;7.034;2023-01-16T00:32:14;5.30;99.90
31597;DHT22;18201;50.978;7.034;2023-01-16T00:32:46;5.30;99.90
31597;DHT22;18201;50.978;7.034;2023-01-16T00:33:19;5.40;99.90
31597;DHT22;18201;50.978;7.034;2023-01-16T00:33:50;5.40;99.90
31597;DHT22;18201;50.978;7.034;2023-01-16T00:34:24;5.40;99.90
31597;DHT22;18201;50.978;7.034;2023-01-16T00:34:56;5.30;99.90
31597;DHT22;18201;50.978;7.034;2023-01-16T00:35:28;5.40;99.90
31597;DHT22;18201;50.978;7.034;2023-01-16T00:35:59;5.30;99.90
31597;DHT22;18201;50.978;7.034;2023-01-16T00:36:31;5.40;99.90
31597;DHT22;18201;50.978;7.034;2023-01-16T00:37:05;5.30;99.90
31597;DHT22;18201;50.978;7.034;2023-01-16T00:37:36;5.30;99.90
31597;DHT22;18201;50.978;7.034;2023-01-16T00:38:09;5.30;99.90
31597;DHT22;18201;50.978;7.034;2023-01-16T00:38:40;5.30;99.90
31597;DHT22;18201;50.978;7.034;2023-01-16T00:39:11;5.30;99.90
31597;DHT22;18201;50.978;7.034;2023-01-16T00:39:43;5.30;99.90
31597;DHT22;18201;50.978;7.034;2023-01-16T00:40:14;5.30;99.90
31597;DHT22;18201;50.978;7.034;2023-01-16T00:40:46;5.30;99.90
31597;DHT22;18201;50.978;7.034;2023-01-16T00:41:17;5.20;99.90
31597;DHT22;18201;50.978;7.034;2023-01-16T00:41:50;5.20;99.90
31597;DHT22;18201;50.978;7.034;2023-01-16T00:42:20;5.20;99.90
31597;DHT22;18201;50.978;7.034;2023-01-16T00:42:51;5.20;99.90
31597;DHT22;18201;50.978;7.034;2023-01-16T00:43:23;5.20;99.90
31597;DHT22;18201;50.978;7.034;2023-01-16T00:43:54;5.20;99.90
31597;DHT22;18201;50.978;7.034;2023-01-16T00:44:27;5.20;99.90
31597;DHT22;18201;50.978;7.034;2023-01-16T00:44:59;5.10;99.90
31597;DHT22;18201;50.978;7.034;2023-01-16T00:45:30;5.10;99.90
31597;DHT22;18201;50.978;7.034;2023-01-16T00:46:01;5.10;99.90
31597;DHT22;18201;50.978;7.034;2023-01-16T00:46:32;5.10;99.90
31597;DHT22;18201;50.978;7.034;2023-01-16T00:47:03;5.10;99.90
31597;DHT22;18201;50.978;7.034;2023-01-16T00:47:35;5.10;99.90
31597;DHT22;18201;50.978;7.034;2023-01-16T00:48:07;5.10;99.90
31597;DHT22;18201;50.978;7.034;2023-01-16T00:48:38;5.00;99.90
31597;DHT22;18201;50.978;7.034;2023-01-16T00:49:08;5.00;99.90
31597;DHT22;18201;50.978;7.034;2023-01-16T00:49:40;5.00;99.90
31597;DHT22;18201;50.978;7.034;2023-01-16T00:50:11;5.00;99.90
31597;DHT22;18201;50.978;7.034;2023-01-16T00:50:43;5.00;99.90
31597;DHT22;18201;50.978;7.034;2023-01-16T00:51:15;5.00;99.90
31597;DHT22;18201;50.978;7.034;2023-01-16T00:51:46;5.00;99.90
31597;DHT22;18201;50.978;7.034;2023-01-16T00:52:17;5.00;99.90
31597;DHT22;18201;50.978;7.034;2023-01-16T00:52:49;4.90;99.90
31597;DHT22;18201;50.978;7.034;2023-01-16T00:53:20;4.90;99.90
31597;DHT22;18201;50.978;7.034;2023-01-16T00:53:51;4.90;99.90
31597;DHT22;18201;50.978;7.034;2023-01-16T00:54:23;4.90;99.90
31597;DHT22;18201;50.978;7.034;2023-01-16T00:54:54;4.90;99.90
31597;DHT22;18201;50.978;7.034;2023-01-16T00:55:25;4.90;99.90
31597;DHT22;18201;50.978;7.034;2023-01-16T00:55:58;4.90;99.90
31597;DHT22;18201;50.978;7.034;2023-01-16T00:56:29;4.90;99.90
31597;DHT22;18201;50.978;7.034;2023-01-16T00:57:00;4.90;99.90
31597;DHT22;18201;50.978;7.034;2023-01-16T00:57:32;4.90;99.90
31597;DHT22;18201;50.978;7.034;2023-01-16T00:58:03;4.90;99.90
31597;DHT22;18201;50.978;7.034;2023-01-16T00:58:34;4.90;99.90
31597;DHT22;18201;50.978;7.034;2023-01-16T00:59:06;4.90;99.90
31597;DHT22;18201;50.978;7.034;2023-01-16T00:59:37;4.90;99.90
31597;DHT22;18201;50.978;7.034;2023-01-16T01:00:09;4.90;99.90
31597;DHT22;18201;50.978;7.034;2023-01-16T01:00:41;4.90;99.90
31597;DHT22;18201;50.978;7.034;2023-01-16T01:01:12;4.90;99.90
31597;DHT22;18201;50.978;7.034;2023-01-16T01:01:43;4.80;99.90
31597;DHT22;18201;50.978;7.034;2023-01-16T01:02:14;4.80;99.90
31597;DHT22;18201;50.978;7.034;2023-01-16T01:02:46;4.90;99.90
31597;DHT22;18201;50.978;7.034;2023-01-16T01:03:17;4.90;99.90
31597;DHT22;18201;50.978;7.034;2023-01-16T01:03:49;4.80;99.90
31597;DHT22;18201;50.978;7.034;2023-01-16T01:04:21;4.90;99.90
31597;DHT22;18201;50.978;7.034;2023-01-16T01:04:52;4.90;99.90
31597;DHT22;18201;50.978;7.034;2023-01-16T01:05:23;4.90;99.90
31597;DHT22;18201;50.978;7.034;2023-01-16T01:05:56;4.90;99.90
31597;DHT22;18201;50.978;7.034;2023-01-16T01:06:28;4.90;99.90
31597;DHT22;18201;50.978;7.034;2023-01-16T01:06:59;4.90;99.90
31597;DHT22;18201;50.978;7.034;2023-01-16T01:07:33;4.90;99.90
31597;DHT22;18201;50.978;7.034;2023-01-16T01:08:04;4.90;99.90
31597;DHT22;18201;50.978;7.034;2023-01-16T01:08:35;4.90;99.90
31597;DHT22;18201;50.978;7.034;2023-01-16T01:09:07;4.90;99.90
31597;DHT22;18201;50.978;7.034;2023-01-16T01:09:38;4.90;99.90
31597;DHT22;18201;50.978;7.034;2023-01-16T01:10:10;4.90;99.90
31597;DHT22;18201;50.978;7.034;2023-01-16T01:10:41;4.90;99.90
31597;DHT22;18201;50.978;7.034;2023-01-16T01:11:13;4.90;99.90
31597;DHT22;18201;50.978;7.034;2023-01-16T01:11:44;4.90;99.90
31597;DHT22;18201;50.978;7.034;2023-01-16T01:12:16;4.90;99.90
31597;DHT22;18201;50.978;7.034;2023-01-16T01:12:47;4.90;99.90
31597;DHT22;18201;50.978;7.034;2023-01-16T01:13:18;4.90;99.90
31597;DHT22;18201;50.978;7.034;2023-01-16T01:13:50;4.90;99.90
31597;DHT22;18201;50.978;7.034;2023-01-16T01:14:20;5.00;99.90
31597;DHT22;18201;50.978;7.034;2023-01-16T01:14:51;5.00;99.90
31597;DHT22;18201;50.978;7.034;2023-01-16T01:15:22;5.00;99.90
31597;DHT22;18201;50.978;7.034;2023-01-16T01:15:54;5.00;99.90
31597;DHT22;18201;50.978;7.034;2023-01-16T01:16:25;5.00;99.90
31597;DHT22;18201;50.978;7.034;2023-01-16T01:16:56;5.00;99.90
31597;DHT22;18201;50.978;7.034;2023-01-16T01:17:28;5.00;99.90
31597;DHT22;18201;50.978;7.034;2023-01-16T01:17:58;4.90;99.90
31597;DHT22;18201;50.978;7.034;2023-01-16T01:18:29;5.00;99.90
31597;DHT22;18201;50.978;7.034;2023-01-16T01:19:01;5.00;99.90
31597;DHT22;18201;50.978;7.034;2023-01-16T01:19:32;5.00;99.90
31597;DHT22;18201;50.978;7.034;2023-01-16T01:20:04;5.00;99.90
31597;DHT22;18201;50.978;7.034;2023-01-16T01:20:36;5.00;99.90
31597;DHT22;18201;50.978;7.034;2023-01-16T01:21:09;5.00;99.90
31597;DHT22;18201;50.978;7.034;2023-01-16T01:21:40;5.00;99.90
31597;DHT22;18201;50.978;7.034;2023-01-16T01:22:12;5.00;99.90
31597;DHT22;18201;50.978;7.034;2023-01-16T01:22:44;5.00;99.90
31597;DHT22;18201;50.978;7.034;2023-01-16T01:23:16;5.00;99.90
31597;DHT22;18201;50.978;7.034;2023-01-16T01:23:48;5.00;99.90
31597;DHT22;18201;50.978;7.034;2023-01-16T01:24:19;5.00;99.90
31597;DHT22;18201;50.978;7.034;2023-01-16T01:24:51;5.00;99.90
31597;DHT22;18201;50.978;7.034;2023-01-16T01:25:22;5.00;99.90
31597;DHT22;18201;50.978;7.034;2023-01-16T01:25:53;5.10;99.90
31597;DHT22;18201;50.978;7.034;2023-01-16T01:26:25;5.10;99.90
31597;DHT22;18201;50.978;7.034;2023-01-16T01:26:56;5.10;99.90
31597;DHT22;18201;50.978;7.034;2023-01-16T01:27:28;5.10;99.90
31597;DHT22;18201;50.978;7.034;2023-01-16T01:28:00;5.10;99.90
31597;DHT22;18201;50.978;7.034;2023-01-16T01:28:31;5.10;99.90
31597;DHT22;18201;50.978;7.034;2023-01-16T01:29:02;5.10;99.90
31597;DHT22;18201;50.978;7.034;2023-01-16T01:29:34;5.10;99.90
31597;DHT22;18201;50.978;7.034;2023-01-16T01:30:06;5.10;99.90
31597;DHT22;18201;50.978;7.034;2023-01-16T01:30:37;5.10;99.90
31597;DHT22;18201;50.978;7.034;2023-01-16T01:31:11;5.10;99.90
31597;DHT22;18201;50.978;7.034;2023-01-16T01:31:42;5.10;99.90
31597;DHT22;18201;50.978;7.034;2023-01-16T01:32:13;5.10;99.90
31597;DHT22;18201;50.978;7.034;2023-01-16T01:32:45;5.10;99.90
31597;DHT22;18201;50.978;7.034;2023-01-16T01:33:16;5.10;99.90
31597;DHT22;18201;50.978;7.034;2023-01-16T01:33:47;5.10;99.90
31597;DHT22;18201;50.978;7.034;2023-01-16T01:34:19;5.10;99.90
31597;DHT22;18201;50.978;7.034;2023-01-16T01:34:50;5.10;99.90
31597;DHT22;18201;50.978;7.034;2023-01-16T01:35:21;5.10;99.90
31597;DHT22;18201;50.978;7.034;2023-01-16T01:35:53;5.10;99.90
31597;DHT22;18201;50.978;7.034;2023-01-16T01:36:25;5.10;99.90
31597;DHT22;18201;50.978;7.034;2023-01-16T01:36:56;5.10;99.90
31597;DHT22;18201;50.978;7.034;2023-01-16T01:37:28;5.10;99.90
31597;DHT22;18201;50.978;7.034;2023-01-16T01:37:58;5.10;99.90
31597;DHT22;18201;50.978;7.034;2023-01-16T01:38:29;5.10;99.90
31597;DHT22;18201;50.978;7.034;2023-01-16T01:39:01;5.10;99.90
31597;DHT22;18201;50.978;7.034;2023-01-16T01:39:32;5.10;99.90
31597;DHT22;18201;50.978;7.034;2023-01-16T01:40:04;5.10;99.90
31597;DHT22;18201;50.978;7.034;2023-01-16T01:40:37;5.10;99.90
31597;DHT22;18201;50.978;7.034;2023-01-16T01:41:11;5.10;99.90
31597;DHT22;18201;50.978;7.034;2023-01-16T01:41:43;5.10;99.90
31597;DHT22;18201;50.978;7.034;2023-01-16T01:42:13;5.10;99.90
31597;DHT22;18201;50.978;7.034;2023-01-16T01:43:07;5.10;99.90
31597;DHT22;18201;50.978;7.034;2023-01-16T01:43:42;5.10;99.90
31597;DHT22;18201;50.978;7.034;2023-01-16T01:44:44;5.10;99.90
31597;DHT22;18201;50.978;7.034;2023-01-16T01:45:20;5.10;99.90
31597;DHT22;18201;50.978;7.034;2023-01-16T01:45:54;5.10;99.90
31597;DHT22;18201;50.978;7.034;2023-01-16T01:46:28;5.10;99.90
31597;DHT22;18201;50.978;7.034;2023-01-16T01:47:03;5.10;99.90
31597;DHT22;18201;50.978;7.034;2023-01-16T01:47:36;5.10;99.90
31597;DHT22;18201;50.978;7.034;2023-01-16T01:48:19;5.10;99.90
31597;DHT22;18201;50.978;7.034;2023-01-16T01:48:55;5.10;99.90
31597;DHT22;18201;50.978;7.034;2023-01-16T01:49:29;5.10;99.90
31597;DHT22;18201;50.978;7.034;2023-01-16T01:50:03;5.10;99.90
31597;DHT22;18201;50.978;7.034;2023-01-16T01:50:38;5.10;99.90
31597;DHT22;18201;50.978;7.034;2023-01-16T01:51:15;5.10;99.90
31597;DHT22;18201;50.978;7.034;2023-01-16T01:51:51;5.10;99.90
31597;DHT22;18201;50.978;7.034;2023-01-16T01:52:24;5.10;99.90
31597;DHT22;18201;50.978;7.034;2023-01-16T01:52:59;5.10;99.90
31597;DHT22;18201;50.978;7.034;2023-01-16T01:53:34;5.10;99.90
31597;DHT22;18201;50.978;7.034;2023-01-16T01:54:08;5.20;99.90
31597;DHT22;18201;50.978;7.034;2023-01-16T01:54:42;5.20;99.90
31597;DHT22;18201;50.978;7.034;2023-01-16T01:55:16;5.20;99.90
31597;DHT22;18201;50.978;7.034;2023-01-16T01:55:48;5.20;99.90
31597;DHT22;18201;50.978;7.034;2023-01-16T01:56:23;5.20;99.90
31597;DHT22;18201;50.978;7.034;2023-01-16T01:56:58;5.20;99.90
31597;DHT22;18201;50.978;7.034;2023-01-16T01:57:34;5.20;99.90
31597;DHT22;18201;50.978;7.034;2023-01-16T01:58:06;5.20;99.90
31597;DHT22;18201;50.978;7.034;2023-01-16T01:58:39;5.20;99.90
31597;DHT22;18201;50.978;7.034;2023-01-16T01:59:14;5.20;99.90
31597;DHT22;18201;50.978;7.034;2023-01-16T01:59:49;5.20;99.90
31597;DHT22;18201;50.978;7.034;2023-01-16T02:00:24;5.20;99.90
31597;DHT22;18201;50.978;7.034;2023-01-16T02:00:58;5.20;99.90
31597;DHT22;18201;50.978;7.034;2023-01-16T02:01:30;5.20;99.90
31597;DHT22;18201;50.978;7.034;2023-01-16T02:02:04;5.20;99.90
31597;DHT22;18201;50.978;7.034;2023-01-16T02:02:39;5.20;99.90
31597;DHT22;18201;50.978;7.034;2023-01-16T02:03:15;5.20;99.90
31597;DHT22;18201;50.978;7.034;2023-01-16T02:03:51;5.20;99.90
31597;DHT22;18201;50.978;7.034;2023-01-16T02:04:24;5.20;99.90
31597;DHT22;18201;50.978;7.034;2023-01-16T02:04:56;5.20;99.90
31597;DHT22;18201;50.978;7.034;2023-01-16T02:05:31;5.10;99.90
31597;DHT22;18201;50.978;7.034;2023-01-16T02:06:06;5.20;99.90
31597;DHT22;18201;50.978;7.034;2023-01-16T02:06:42;5.20;99.90
31597;DHT22;18201;50.978;7.034;2023-01-16T02:07:17;5.20;99.90
31597;DHT22;18201;50.978;7.034;2023-01-16T02:07:50;5.20;99.90
31597;DHT22;18201;50.978;7.034;2023-01-16T02:08:25;5.20;99.90
31597;DHT22;18201;50.978;7.034;2023-01-16T02:08:58;5.20;99.90
31597;DHT22;18201;50.978;7.034;2023-01-16T02:09:29;5.20;99.90
31597;DHT22;18201;50.978;7.034;2023-01-16T02:10:12;5.10;99.90
31597;DHT22;18201;50.978;7.034;2023-01-16T02:10:50;5.20;99.90
31597;DHT22;18201;50.978;7.034;2023-01-16T02:11:25;5.20;99.90
31597;DHT22;18201;50.978;7.034;2023-01-16T02:12:05;5.20;99.90
31597;DHT22;18201;50.978;7.034;2023-01-16T02:12:37;5.20;99.90
31597;DHT22;18201;50.978;7.034;2023-01-16T02:13:08;5.10;99.90
31597;DHT22;18201;50.978;7.034;2023-01-16T02:13:40;5.20;99.90
31597;DHT22;18201;50.978;7.034;2023-01-16T02:14:13;5.20;99.90
31597;DHT22;18201;50.978;7.034;2023-01-16T02:14:46;5.20;99.90
31597;DHT22;18201;50.978;7.034;2023-01-16T02:15:19;5.20;99.90
31597;DHT22;18201;50.978;7.034;2023-01-16T02:15:50;5.20;99.90
31597;DHT22;18201;50.978;7.034;2023-01-16T02:16:40;5.20;99.90
31597;DHT22;18201;50.978;7.034;2023-01-16T02:17:44;5.20;99.90
31597;DHT22;18201;50.978;7.034;2023-01-16T02:18:39;5.20;99.90
31597;DHT22;18201;50.978;7.034;2023-01-16T02:19:35;5.20;99.90
31597;DHT22;18201;50.978;7.034;2023-01-16T02:20:19;5.20;99.90
31597;DHT22;18201;50.978;7.034;2023-01-16T02:20:58;5.20;99.90
31597;DHT22;18201;50.978;7.034;2023-01-16T02:22:51;5.20;99.90
31597;DHT22;18201;50.978;7.034;2023-01-16T02:23:57;5.20;99.90
31597;DHT22;18201;50.978;7.034;2023-01-16T02:24:45;5.20;99.90
31597;DHT22;18201;50.978;7.034;2023-01-16T02:26:42;5.20;99.90
31597;DHT22;18201;50.978;7.034;2023-01-16T02:27:37;5.20;99.90
31597;DHT22;18201;50.978;7.034;2023-01-16T02:28:37;5.20;99.90
31597;DHT22;18201;50.978;7.034;2023-01-16T02:30:34;5.20;99.90
31597;DHT22;18201;50.978;7.034;2023-01-16T02:31:20;5.20;99.90
31597;DHT22;18201;50.978;7.034;2023-01-16T02:32:03;5.20;99.90
31597;DHT22;18201;50.978;7.034;2023-01-16T02:32:50;5.20;99.90
31597;DHT22;18201;50.978;7.034;2023-01-16T02:33:30;5.20;99.90
31597;DHT22;18201;50.978;7.034;2023-01-16T02:34:36;5.20;99.90
31597;DHT22;18201;50.978;7.034;2023-01-16T02:35:20;5.20;99.90
31597;DHT22;18201;50.978;7.034;2023-01-16T02:36:00;5.20;99.90
31597;DHT22;18201;50.978;7.034;2023-01-16T02:36:36;5.20;99.90
31597;DHT22;18201;50.978;7.034;2023-01-16T02:37:14;5.20;99.90
31597;DHT22;18201;50.978;7.034;2023-01-16T02:37:54;5.20;99.90
31597;DHT22;18201;50.978;7.034;2023-01-16T02:38:34;5.20;99.90
31597;DHT22;18201;50.978;7.034;2023-01-16T02:39:12;5.20;99.90
31597;DHT22;18201;50.978;7.034;2023-01-16T02:39:56;5.20;99.90
31597;DHT22;18201;50.978;7.034;2023-01-16T02:40:38;5.20;99.90
31597;DHT22;18201;50.978;7.034;2023-01-16T02:41:15;5.20;99.90
31597;DHT22;18201;50.978;7.034;2023-01-16T02:42:01;5.20;99.90
31597;DHT22;18201;50.978;7.034;2023-01-16T02:42:42;5.20;99.90
31597;DHT22;18201;50.978;7.034;2023-01-16T02:43:22;5.20;99.90
31597;DHT22;18201;50.978;7.034;2023-01-16T02:44:06;5.20;99.90
31597;DHT22;18201;50.978;7.034;2023-01-16T02:44:40;5.20;99.90
31597;DHT22;18201;50.978;7.034;2023-01-16T02:45:20;5.20;99.90
31597;DHT22;18201;50.978;7.034;2023-01-16T02:45:59;5.20;99.90
31597;DHT22;18201;50.978;7.034;2023-01-16T02:46:38;5.20;99.90
31597;DHT22;18201;50.978;7.034;2023-01-16T02:47:19;5.30;99.90
31597;DHT22;18201;50.978;7.034;2023-01-16T02:47:57;5.30;99.90
31597;DHT22;18201;50.978;7.034;2023-01-16T02:48:34;5.30;99.90
31597;DHT22;18201;50.978;7.034;2023-01-16T02:49:11;5.30;99.90
31597;DHT22;18201;50.978;7.034;2023-01-16T02:49:50;5.30;99.90
31597;DHT22;18201;50.978;7.034;2023-01-16T02:50:28;5.30;99.90
31597;DHT22;18201;50.978;7.034;2023-01-16T02:51:04;5.30;99.90
31597;DHT22;18201;50.978;7.034;2023-01-16T02:51:43;5.30;99.90
31597;DHT22;18201;50.978;7.034;2023-01-16T02:52:21;5.30;99.90
31597;DHT22;18201;50.978;7.034;2023-01-16T02:52:57;5.30;99.90
31597;DHT22;18201;50.978;7.034;2023-01-16T02:53:36;5.30;99.90
31597;DHT22;18201;50.978;7.034;2023-01-16T02:54:13;5.30;99.90
31597;DHT22;18201;50.978;7.034;2023-01-16T02:54:49;5.30;99.90
31597;DHT22;18201;50.978;7.034;2023-01-16T02:55:27;5.30;99.90
31597;DHT22;18201;50.978;7.034;2023-01-16T02:56:05;5.30;99.90
31597;DHT22;18201;50.978;7.034;2023-01-16T02:56:42;5.20;99.90
31597;DHT22;18201;50.978;7.034;2023-01-16T02:57:17;5.30;99.90
31597;DHT22;18201;50.978;7.034;2023-01-16T02:57:54;5.20;99.90
31597;DHT22;18201;50.978;7.034;2023-01-16T02:58:27;5.30;99.90
31597;DHT22;18201;50.978;7.034;2023-01-16T02:58:59;5.20;99.90
31597;DHT22;18201;50.978;7.034;2023-01-16T02:59:31;5.20;99.90
31597;DHT22;18201;50.978;7.034;2023-01-16T03:00:04;5.20;99.90
31597;DHT22;18201;50.978;7.034;2023-01-16T03:00:36;5.20;99.90
31597;DHT22;18201;50.978;7.034;2023-01-16T03:01:08;5.20;99.90
31597;DHT22;18201;50.978;7.034;2023-01-16T03:01:43;5.20;99.90
31597;DHT22;18201;50.978;7.034;2023-01-16T03:02:14;5.20;99.90
31597;DHT22;18201;50.978;7.034;2023-01-16T03:02:46;5.20;99.90
31597;DHT22;18201;50.978;7.034;2023-01-16T03:03:39;5.20;99.90
31597;DHT22;18201;50.978;7.034;2023-01-16T03:04:38;5.20;99.90
31597;DHT22;18201;50.978;7.034;2023-01-16T03:05:10;5.20;99.90
31597;DHT22;18201;50.978;7.034;2023-01-16T03:05:46;5.20;99.90
31597;DHT22;18201;50.978;7.034;2023-01-16T03:06:36;5.20;99.90
31597;DHT22;18201;50.978;7.034;2023-01-16T03:07:49;5.20;99.90
31597;DHT22;18201;50.978;7.034;2023-01-16T03:08:31;5.20;99.90
31597;DHT22;18201;50.978;7.034;2023-01-16T03:09:21;5.20;99.90
31597;DHT22;18201;50.978;7.034;2023-01-16T03:10:03;5.20;99.90
31597;DHT22;18201;50.978;7.034;2023-01-16T03:10:55;5.20;99.90
31597;DHT22;18201;50.978;7.034;2023-01-16T03:11:37;5.10;99.90
31597;DHT22;18201;50.978;7.034;2023-01-16T03:12:21;5.20;99.90
31597;DHT22;18201;50.978;7.034;2023-01-16T03:13:03;5.20;99.90
31597;DHT22;18201;50.978;7.034;2023-01-16T03:14:01;5.20;99.90
31597;DHT22;18201;50.978;7.034;2023-01-16T03:14:42;5.10;99.90
31597;DHT22;18201;50.978;7.034;2023-01-16T03:15:23;5.10;99.90
31597;DHT22;18201;50.978;7.034;2023-01-16T03:16:03;5.10;99.90
31597;DHT22;18201;50.978;7.034;2023-01-16T03:16:42;5.10;99.90
31597;DHT22;18201;50.978;7.034;2023-01-16T03:17:32;5.10;99.90
31597;DHT22;18201;50.978;7.034;2023-01-16T03:18:10;5.10;99.90
31597;DHT22;18201;50.978;7.034;2023-01-16T03:18:52;5.10;99.90
31597;DHT22;18201;50.978;7.034;2023-01-16T03:19:30;5.10;99.90
31597;DHT22;18201;50.978;7.034;2023-01-16T03:20:13;5.10;99.90
31597;DHT22;18201;50.978;7.034;2023-01-16T03:20:52;5.00;99.90
31597;DHT22;18201;50.978;7.034;2023-01-16T03:21:30;5.00;99.90
31597;DHT22;18201;50.978;7.034;2023-01-16T03:22:12;5.00;99.90
31597;DHT22;18201;50.978;7.034;2023-01-16T03:22:50;5.00;99.90
31597;DHT22;18201;50.978;7.034;2023-01-16T03:23:30;5.00;99.90
31597;DHT22;18201;50.978;7.034;2023-01-16T03:24:10;5.00;99.90
31597;DHT22;18201;50.978;7.034;2023-01-16T03:25:01;4.90;99.90
31597;DHT22;18201;50.978;7.034;2023-01-16T03:25:35;4.90;99.90
31597;DHT22;18201;50.978;7.034;2023-01-16T03:26:15;4.90;99.90
31597;DHT22;18201;50.978;7.034;2023-01-16T03:26:49;4.90;99.90
31597;DHT22;18201;50.978;7.034;2023-01-16T03:27:32;4.90;99.90
31597;DHT22;18201;50.978;7.034;2023-01-16T03:28:09;4.90;99.90
31597;DHT22;18201;50.978;7.034;2023-01-16T03:28:50;4.90;99.90
31597;DHT22;18201;50.978;7.034;2023-01-16T03:29:27;4.80;99.90
31597;DHT22;18201;50.978;7.034;2023-01-16T03:30:06;4.80;99.90
31597;DHT22;18201;50.978;7.034;2023-01-16T03:30:45;4.80;99.90
31597;DHT22;18201;50.978;7.034;2023-01-16T03:31:23;4.80;99.90
31597;DHT22;18201;50.978;7.034;2023-01-16T03:32:04;4.80;99.90
31597;DHT22;18201;50.978;7.034;2023-01-16T03:32:39;4.80;99.90
31597;DHT22;18201;50.978;7.034;2023-01-16T03:33:18;4.80;99.90
31597;DHT22;18201;50.978;7.034;2023-01-16T03:33:55;4.70;99.90
31597;DHT22;18201;50.978;7.034;2023-01-16T03:34:37;4.70;99.90
31597;DHT22;18201;50.978;7.034;2023-01-16T03:35:13;4.70;99.90
31597;DHT22;18201;50.978;7.034;2023-01-16T03:35:48;4.70;99.90
31597;DHT22;18201;50.978;7.034;2023-01-16T03:36:24;4.70;99.90
31597;DHT22;18201;50.978;7.034;2023-01-16T03:37:03;4.70;99.90
31597;DHT22;18201;50.978;7.034;2023-01-16T03:37:40;4.70;99.90
31597;DHT22;18201;50.978;7.034;2023-01-16T03:38:13;4.70;99.90
31597;DHT22;18201;50.978;7.034;2023-01-16T03:38:47;4.70;99.90
31597;DHT22;18201;50.978;7.034;2023-01-16T03:39:22;4.70;99.90
31597;DHT22;18201;50.978;7.034;2023-01-16T03:39:56;4.70;99.90
31597;DHT22;18201;50.978;7.034;2023-01-16T03:40:34;4.60;99.90
31597;DHT22;18201;50.978;7.034;2023-01-16T03:41:09;4.70;99.90
31597;DHT22;18201;50.978;7.034;2023-01-16T03:41:43;4.60;99.90
31597;DHT22;18201;50.978;7.034;2023-01-16T03:42:19;4.60;99.90
31597;DHT22;18201;50.978;7.034;2023-01-16T03:42:58;4.60;99.90
31597;DHT22;18201;50.978;7.034;2023-01-16T03:43:32;4.60;99.90
31597;DHT22;18201;50.978;7.034;2023-01-16T03:44:09;4.60;99.90
31597;DHT22;18201;50.978;7.034;2023-01-16T03:44:46;4.60;99.90
31597;DHT22;18201;50.978;7.034;2023-01-16T03:45:23;4.60;99.90
31597;DHT22;18201;50.978;7.034;2023-01-16T03:45:58;4.60;99.90
31597;DHT22;18201;50.978;7.034;2023-01-16T03:46:34;4.50;99.90
31597;DHT22;18201;50.978;7.034;2023-01-16T03:47:12;4.50;99.90
31597;DHT22;18201;50.978;7.034;2023-01-16T03:47:50;4.50;99.90
31597;DHT22;18201;50.978;7.034;2023-01-16T03:48:29;4.50;99.90
31597;DHT22;18201;50.978;7.034;2023-01-16T03:49:05;4.50;99.90
31597;DHT22;18201;50.978;7.034;2023-01-16T03:49:40;4.50;99.90
31597;DHT22;18201;50.978;7.034;2023-01-16T03:50:14;4.50;99.90